createdAt,value
2018-06-30T00:00:07.547Z,0
2018-06-30T00:01:07.267Z,0
2018-06-30T00:02:07.841Z,0
2018-06-30T00:03:07.795Z,0
2018-06-30T00:04:07.507Z,0
2018-06-30T00:05:07.766Z,0
2018-06-30T00:06:07.745Z,0
2018-06-30T00:07:07.738Z,0
2018-06-30T00:08:07.467Z,0
2018-06-30T00:09:07.458Z,0
2018-06-30T00:10:07.438Z,0
2018-06-30T00:11:07.694Z,0
2018-06-30T00:12:07.683Z,0
2018-06-30T00:13:07.941Z,0
2018-06-30T00:14:07.146Z,0
2018-06-30T00:15:07.391Z,0
2018-06-30T00:16:07.641Z,0
2018-06-30T00:17:07.897Z,0
2018-06-30T00:18:07.896Z,0
2018-06-30T00:19:07.089Z,0
2018-06-30T00:20:07.077Z,0
2018-06-30T00:21:07.855Z,0
2018-06-30T00:22:07.581Z,0
2018-06-30T00:23:07.576Z,0
2018-06-30T00:24:07.562Z,0
2018-06-30T00:25:07.551Z,0
2018-06-30T00:26:07.270Z,0
2018-06-30T00:27:07.263Z,0
2018-06-30T00:28:06.992Z,0
2018-06-30T00:29:07.555Z,0
2018-06-30T00:30:07.771Z,0
2018-06-30T00:31:07.528Z,0
2018-06-30T00:32:07.480Z,0
2018-06-30T00:33:07.734Z,0
2018-06-30T00:34:07.184Z,0
2018-06-30T00:35:07.711Z,0
2018-06-30T00:36:07.696Z,0
2018-06-30T00:37:07.705Z,0
2018-06-30T00:38:06.882Z,0
2018-06-30T00:39:07.665Z,0
2018-06-30T00:40:07.647Z,0
2018-06-30T00:41:07.377Z,0
2018-06-30T00:42:06.834Z,0
2018-06-30T00:43:07.092Z,0
2018-06-30T00:44:06.817Z,0
2018-06-30T00:45:07.065Z,0
2018-06-30T00:46:07.594Z,0
2018-06-30T00:47:07.059Z,0
2018-06-30T00:48:07.043Z,0
2018-06-30T00:49:07.353Z,0
2018-06-30T00:50:06.754Z,0
2018-06-30T00:51:07.280Z,0
2018-06-30T00:52:06.997Z,0
2018-06-30T00:53:07.513Z,0
2018-06-30T00:54:06.972Z,0
2018-06-30T00:55:06.958Z,0
2018-06-30T00:56:07.208Z,0
2018-06-30T00:57:06.941Z,0
2018-06-30T00:58:06.931Z,0
2018-06-30T00:59:07.450Z,0
2018-06-30T01:00:06.912Z,0
2018-06-30T01:01:06.907Z,0
2018-06-30T01:02:07.422Z,0
2018-06-30T01:03:06.876Z,0
2018-06-30T01:04:07.137Z,0
2018-06-30T01:05:07.123Z,0
2018-06-30T01:06:07.377Z,0
2018-06-30T01:07:07.411Z,0
2018-06-30T01:08:07.090Z,0
2018-06-30T01:09:07.083Z,0
2018-06-30T01:10:07.074Z,0
2018-06-30T01:11:06.534Z,0
2018-06-30T01:12:07.050Z,0
2018-06-30T01:13:07.036Z,0
2018-06-30T01:14:07.028Z,0
2018-06-30T01:15:07.032Z,0
2018-06-30T01:16:06.997Z,0
2018-06-30T01:17:06.723Z,0
2018-06-30T01:18:06.451Z,0
2018-06-30T01:19:06.695Z,0
2018-06-30T01:20:06.705Z,0
2018-06-30T01:21:07.218Z,0
2018-06-30T01:22:06.931Z,0
2018-06-30T01:23:06.935Z,0
2018-06-30T01:24:06.910Z,0
2018-06-30T01:25:06.902Z,0
2018-06-30T01:26:06.884Z,0
2018-06-30T01:27:06.619Z,0
2018-06-30T01:28:07.178Z,0
2018-06-30T01:29:06.850Z,0
2018-06-30T01:30:06.845Z,0
2018-06-30T01:31:06.568Z,0
2018-06-30T01:32:06.291Z,0
2018-06-30T01:33:06.545Z,0
2018-06-30T01:34:06.535Z,0
2018-06-30T01:35:06.784Z,0
2018-06-30T01:36:06.772Z,0
2018-06-30T01:37:07.030Z,0
2018-06-30T01:38:06.748Z,0
2018-06-30T01:39:06.485Z,0
2018-06-30T01:40:06.462Z,0
2018-06-30T01:41:06.753Z,0
2018-06-30T01:42:06.439Z,0
2018-06-30T01:43:06.446Z,0
2018-06-30T01:44:06.429Z,0
2018-06-30T01:45:06.934Z,0
2018-06-30T01:46:06.663Z,0
2018-06-30T01:47:06.119Z,0
2018-06-30T01:48:06.629Z,0
2018-06-30T01:49:06.364Z,0
2018-06-30T01:50:06.665Z,0
2018-06-30T01:51:06.610Z,0
2018-06-30T01:52:06.334Z,0
2018-06-30T01:53:06.322Z,0
2018-06-30T01:54:06.308Z,0
2018-06-30T01:55:06.296Z,0
2018-06-30T01:56:06.281Z,0
2018-06-30T01:57:06.540Z,0
2018-06-30T01:58:06.794Z,0
2018-06-30T01:59:06.826Z,0
2018-06-30T02:00:06.509Z,0
2018-06-30T02:01:06.764Z,0
2018-06-30T02:02:06.211Z,0
2018-06-30T02:03:06.459Z,0
2018-06-30T02:04:06.188Z,0
2018-06-30T02:05:06.185Z,0
2018-06-30T02:06:06.168Z,0
2018-06-30T02:07:06.686Z,0
2018-06-30T02:08:06.421Z,0
2018-06-30T02:09:06.663Z,0
2018-06-30T02:10:06.399Z,0
2018-06-30T02:11:06.376Z,0
2018-06-30T02:12:05.836Z,0
2018-06-30T02:13:06.352Z,0
2018-06-30T02:14:05.829Z,0
2018-06-30T02:15:06.367Z,0
2018-06-30T02:16:06.052Z,0
2018-06-30T02:17:06.569Z,0
2018-06-30T02:18:06.293Z,0
2018-06-30T02:19:05.751Z,0
2018-06-30T02:20:05.741Z,0
2018-06-30T02:21:05.992Z,0
2018-06-30T02:22:06.248Z,0
2018-06-30T02:23:06.293Z,0
2018-06-30T02:24:05.729Z,0
2018-06-30T02:25:05.947Z,0
2018-06-30T02:26:05.665Z,0
2018-06-30T02:27:06.472Z,0
2018-06-30T02:28:05.964Z,0
2018-06-30T02:29:05.903Z,0
2018-06-30T02:30:06.428Z,0
2018-06-30T02:31:06.145Z,0
2018-06-30T02:32:06.403Z,0
2018-06-30T02:33:06.127Z,0
2018-06-30T02:34:06.120Z,0
2018-06-30T02:35:05.828Z,4
2018-06-30T02:36:06.102Z,4
2018-06-30T02:37:06.067Z,0
2018-06-30T02:38:06.059Z,0
2018-06-30T02:39:05.543Z,4
2018-06-30T02:40:06.331Z,4
2018-06-30T02:41:05.773Z,0
2018-06-30T02:42:05.758Z,4
2018-06-30T02:43:05.761Z,4
2018-06-30T02:44:06.022Z,4
2018-06-30T02:45:06.308Z,4
2018-06-30T02:46:06.219Z,4
2018-06-30T02:47:05.728Z,8
2018-06-30T02:48:06.216Z,8
2018-06-30T02:49:05.931Z,8
2018-06-30T02:50:06.185Z,12
2018-06-30T02:51:05.910Z,12
2018-06-30T02:52:06.181Z,12
2018-06-30T02:53:05.628Z,16
2018-06-30T02:54:05.884Z,12
2018-06-30T02:55:06.134Z,16
2018-06-30T02:56:05.866Z,20
2018-06-30T02:57:05.852Z,20
2018-06-30T02:58:05.822Z,28
2018-06-30T02:59:05.553Z,28
2018-06-30T03:00:05.796Z,32
2018-06-30T03:01:05.539Z,36
2018-06-30T03:02:05.516Z,40
2018-06-30T03:03:05.843Z,44
2018-06-30T03:04:05.483Z,44
2018-06-30T03:05:05.736Z,52
2018-06-30T03:06:05.729Z,56
2018-06-30T03:07:05.993Z,64
2018-06-30T03:08:05.454Z,68
2018-06-30T03:09:05.962Z,76
2018-06-30T03:10:05.958Z,80
2018-06-30T03:11:05.676Z,88
2018-06-30T03:12:05.927Z,96
2018-06-30T03:13:05.913Z,104
2018-06-30T03:14:05.919Z,112
2018-06-30T03:15:05.894Z,120
2018-06-30T03:16:05.360Z,128
2018-06-30T03:17:05.882Z,140
2018-06-30T03:18:05.332Z,144
2018-06-30T03:19:05.576Z,156
2018-06-30T03:20:05.316Z,168
2018-06-30T03:21:05.814Z,180
2018-06-30T03:22:05.806Z,188
2018-06-30T03:23:05.260Z,200
2018-06-30T03:24:05.776Z,212
2018-06-30T03:25:05.493Z,224
2018-06-30T03:26:05.494Z,232
2018-06-30T03:27:05.477Z,248
2018-06-30T03:28:05.200Z,256
2018-06-30T03:29:05.185Z,268
2018-06-30T03:30:05.185Z,284
2018-06-30T03:31:05.440Z,296
2018-06-30T03:32:04.900Z,304
2018-06-30T03:33:05.403Z,320
2018-06-30T03:34:05.416Z,328
2018-06-30T03:35:05.055Z,344
2018-06-30T03:36:04.859Z,356
2018-06-30T03:37:05.397Z,368
2018-06-30T03:38:05.635Z,380
2018-06-30T03:39:05.068Z,392
2018-06-30T03:40:05.592Z,404
2018-06-30T03:41:05.051Z,416
2018-06-30T03:42:05.299Z,428
2018-06-30T03:43:05.286Z,440
2018-06-30T03:44:05.568Z,452
2018-06-30T03:45:05.006Z,464
2018-06-30T03:46:05.270Z,476
2018-06-30T03:47:05.244Z,496
2018-06-30T03:48:05.229Z,512
2018-06-30T03:49:05.224Z,536
2018-06-30T03:50:05.469Z,560
2018-06-30T03:51:04.928Z,584
2018-06-30T03:52:05.180Z,604
2018-06-30T03:53:04.911Z,624
2018-06-30T03:54:04.642Z,636
2018-06-30T03:55:05.167Z,652
2018-06-30T03:56:04.609Z,672
2018-06-30T03:57:05.127Z,692
2018-06-30T03:58:04.881Z,712
2018-06-30T03:59:05.100Z,736
2018-06-30T04:00:04.562Z,756
2018-06-30T04:01:05.082Z,784
2018-06-30T04:02:04.538Z,816
2018-06-30T04:03:04.799Z,832
2018-06-30T04:04:05.085Z,860
2018-06-30T04:05:05.051Z,872
2018-06-30T04:06:05.280Z,888
2018-06-30T04:07:05.012Z,900
2018-06-30T04:08:05.002Z,916
2018-06-30T04:09:04.989Z,956
2018-06-30T04:10:04.975Z,976
2018-06-30T04:11:04.708Z,1016
2018-06-30T04:12:04.955Z,1032
2018-06-30T04:13:04.415Z,1060
2018-06-30T04:14:04.665Z,1096
2018-06-30T04:15:04.383Z,1120
2018-06-30T04:16:04.643Z,1160
2018-06-30T04:17:04.372Z,1180
2018-06-30T04:18:04.618Z,1192
2018-06-30T04:19:04.617Z,1208
2018-06-30T04:20:04.601Z,1212
2018-06-30T04:21:04.849Z,1208
2018-06-30T04:22:04.996Z,1224
2018-06-30T04:23:05.090Z,1260
2018-06-30T04:24:04.843Z,1280
2018-06-30T04:25:04.822Z,1340
2018-06-30T04:26:04.795Z,1372
2018-06-30T04:27:04.253Z,1364
2018-06-30T04:28:04.772Z,1368
2018-06-30T04:29:04.239Z,1376
2018-06-30T04:30:04.752Z,1360
2018-06-30T04:31:04.998Z,1364
2018-06-30T04:32:04.989Z,1360
2018-06-30T04:33:04.457Z,1340
2018-06-30T04:34:04.439Z,1312
2018-06-30T04:35:04.698Z,1288
2018-06-30T04:36:04.418Z,1276
2018-06-30T04:37:04.409Z,1260
2018-06-30T04:38:04.402Z,1248
2018-06-30T04:39:04.387Z,1248
2018-06-30T04:40:04.906Z,1248
2018-06-30T04:41:04.630Z,1248
2018-06-30T04:42:04.624Z,1252
2018-06-30T04:43:04.611Z,1252
2018-06-30T04:44:04.600Z,1252
2018-06-30T04:45:04.922Z,1260
2018-06-30T04:46:04.356Z,1256
2018-06-30T04:47:04.301Z,1260
2018-06-30T04:48:04.555Z,1264
2018-06-30T04:49:04.289Z,1272
2018-06-30T04:50:04.536Z,1272
2018-06-30T04:51:04.311Z,1284
2018-06-30T04:52:04.517Z,1292
2018-06-30T04:53:04.235Z,1296
2018-06-30T04:54:03.960Z,1300
2018-06-30T04:55:04.222Z,1304
2018-06-30T04:56:04.205Z,1308
2018-06-30T04:57:04.453Z,1316
2018-06-30T04:58:04.177Z,1324
2018-06-30T04:59:04.174Z,1328
2018-06-30T05:00:04.437Z,1332
2018-06-30T05:01:04.409Z,1340
2018-06-30T05:02:04.403Z,1348
2018-06-30T05:03:03.867Z,1352
2018-06-30T05:04:04.385Z,1360
2018-06-30T05:05:04.368Z,1368
2018-06-30T05:06:04.109Z,1376
2018-06-30T05:07:04.084Z,1384
2018-06-30T05:08:04.082Z,1388
2018-06-30T05:09:04.056Z,1392
2018-06-30T05:10:04.369Z,1404
2018-06-30T05:11:04.577Z,1408
2018-06-30T05:12:04.307Z,1416
2018-06-30T05:13:04.419Z,1424
2018-06-30T05:14:04.283Z,1428
2018-06-30T05:15:03.732Z,1436
2018-06-30T05:16:04.023Z,1440
2018-06-30T05:17:04.235Z,1444
2018-06-30T05:18:04.249Z,1448
2018-06-30T05:19:04.233Z,1456
2018-06-30T05:20:04.478Z,1456
2018-06-30T05:21:04.196Z,1472
2018-06-30T05:22:04.205Z,1476
2018-06-30T05:23:03.974Z,1480
2018-06-30T05:24:03.916Z,1492
2018-06-30T05:25:04.186Z,1500
2018-06-30T05:26:04.835Z,1508
2018-06-30T05:27:04.133Z,1508
2018-06-30T05:28:04.406Z,1512
2018-06-30T05:29:03.856Z,1520
2018-06-30T05:30:04.421Z,1532
2018-06-30T05:31:04.366Z,1528
2018-06-30T05:32:04.095Z,1532
2018-06-30T05:33:03.818Z,1536
2018-06-30T05:34:03.801Z,1548
2018-06-30T05:35:04.269Z,1552
2018-06-30T05:36:04.057Z,1556
2018-06-30T05:37:04.310Z,1564
2018-06-30T05:38:04.287Z,1564
2018-06-30T05:39:04.019Z,1580
2018-06-30T05:40:03.738Z,1580
2018-06-30T05:41:03.732Z,1588
2018-06-30T05:42:03.452Z,1592
2018-06-30T05:43:03.987Z,1604
2018-06-30T05:44:03.959Z,1616
2018-06-30T05:45:03.955Z,1620
2018-06-30T05:46:04.206Z,1628
2018-06-30T05:47:04.214Z,1632
2018-06-30T05:48:03.656Z,1640
2018-06-30T05:49:04.172Z,1640
2018-06-30T05:50:03.895Z,1652
2018-06-30T05:51:03.886Z,1660
2018-06-30T05:52:03.608Z,1668
2018-06-30T05:53:03.608Z,1680
2018-06-30T05:54:03.852Z,1688
2018-06-30T05:55:03.855Z,1696
2018-06-30T05:56:03.568Z,1700
2018-06-30T05:57:03.816Z,1704
2018-06-30T05:58:03.816Z,1716
2018-06-30T05:59:03.542Z,1724
2018-06-30T06:00:03.800Z,1732
2018-06-30T06:01:03.787Z,1740
2018-06-30T06:02:03.518Z,1756
2018-06-30T06:03:04.084Z,1756
2018-06-30T06:04:03.228Z,1764
2018-06-30T06:05:03.740Z,1768
2018-06-30T06:06:03.742Z,1776
2018-06-30T06:07:03.460Z,1776
2018-06-30T06:08:03.459Z,1780
2018-06-30T06:09:03.706Z,1780
2018-06-30T06:10:03.991Z,1788
2018-06-30T06:11:03.678Z,1796
2018-06-30T06:12:03.679Z,1796
2018-06-30T06:13:03.399Z,1804
2018-06-30T06:14:03.652Z,1820
2018-06-30T06:15:03.990Z,1824
2018-06-30T06:16:03.102Z,1828
2018-06-30T06:17:03.633Z,1840
2018-06-30T06:18:03.883Z,1872
2018-06-30T06:19:03.605Z,4016
2018-06-30T06:20:03.462Z,5940
2018-06-30T06:21:03.616Z,2784
2018-06-30T06:22:03.581Z,1984
2018-06-30T06:23:03.304Z,7740
2018-06-30T06:24:03.294Z,18592
2018-06-30T06:25:03.824Z,24992
2018-06-30T06:26:04.088Z,25472
2018-06-30T06:27:03.529Z,16460
2018-06-30T06:28:03.797Z,4200
2018-06-30T06:29:03.254Z,1916
2018-06-30T06:30:02.977Z,1916
2018-06-30T06:31:03.497Z,1928
2018-06-30T06:32:03.753Z,1940
2018-06-30T06:33:03.491Z,1956
2018-06-30T06:34:03.479Z,1968
2018-06-30T06:35:03.475Z,1972
2018-06-30T06:36:03.191Z,1972
2018-06-30T06:37:03.440Z,1980
2018-06-30T06:38:03.439Z,1984
2018-06-30T06:39:03.452Z,1992
2018-06-30T06:40:03.153Z,2004
2018-06-30T06:41:02.882Z,2012
2018-06-30T06:42:03.417Z,2020
2018-06-30T06:43:02.864Z,2020
2018-06-30T06:44:03.656Z,2040
2018-06-30T06:45:03.379Z,2048
2018-06-30T06:46:03.096Z,2072
2018-06-30T06:47:03.090Z,2104
2018-06-30T06:48:03.350Z,2116
2018-06-30T06:49:03.607Z,2176
2018-06-30T06:50:03.064Z,2656
2018-06-30T06:51:03.163Z,14040
2018-06-30T06:52:03.050Z,30336
2018-06-30T06:53:03.051Z,33824
2018-06-30T06:54:03.024Z,32384
2018-06-30T06:55:03.025Z,22976
2018-06-30T06:56:03.021Z,11284
2018-06-30T06:57:03.538Z,3000
2018-06-30T06:58:03.266Z,2372
2018-06-30T06:59:02.993Z,2296
2018-06-30T07:00:03.518Z,2288
2018-06-30T07:01:03.260Z,2280
2018-06-30T07:02:03.508Z,2296
2018-06-30T07:03:03.265Z,2296
2018-06-30T07:04:03.229Z,2308
2018-06-30T07:05:02.982Z,2332
2018-06-30T07:06:02.940Z,6608
2018-06-30T07:07:02.682Z,11460
2018-06-30T07:08:03.200Z,5740
2018-06-30T07:09:02.939Z,2360
2018-06-30T07:10:02.915Z,2376
2018-06-30T07:11:02.646Z,2400
2018-06-30T07:12:03.169Z,2384
2018-06-30T07:13:02.953Z,2388
2018-06-30T07:14:03.421Z,2364
2018-06-30T07:15:03.139Z,2384
2018-06-30T07:16:03.397Z,2388
2018-06-30T07:17:03.396Z,2436
2018-06-30T07:18:02.866Z,4352
2018-06-30T07:19:03.113Z,12520
2018-06-30T07:20:02.834Z,23648
2018-06-30T07:21:03.107Z,35072
2018-06-30T07:22:03.106Z,41824
2018-06-30T07:23:03.098Z,41504
2018-06-30T07:24:02.828Z,42336
2018-06-30T07:25:02.816Z,44384
2018-06-30T07:26:02.808Z,44352
2018-06-30T07:27:03.075Z,43520
2018-06-30T07:28:02.797Z,43680
2018-06-30T07:29:02.805Z,45568
2018-06-30T07:30:03.087Z,46944
2018-06-30T07:31:02.784Z,47648
2018-06-30T07:32:03.055Z,48480
2018-06-30T07:33:03.049Z,49184
2018-06-30T07:34:03.051Z,47584
2018-06-30T07:35:02.981Z,44640
2018-06-30T07:36:02.508Z,42912
2018-06-30T07:37:03.043Z,44640
2018-06-30T07:38:03.031Z,46176
2018-06-30T07:39:02.772Z,46016
2018-06-30T07:40:02.769Z,46240
2018-06-30T07:41:03.027Z,48992
2018-06-30T07:42:03.031Z,52160
2018-06-30T07:43:02.496Z,52704
2018-06-30T07:44:02.756Z,51936
2018-06-30T07:45:03.261Z,51808
2018-06-30T07:46:02.766Z,51520
2018-06-30T07:47:03.024Z,48736
2018-06-30T07:48:03.082Z,45760
2018-06-30T07:49:03.024Z,44896
2018-06-30T07:50:03.049Z,47584
2018-06-30T07:51:02.779Z,49312
2018-06-30T07:52:03.038Z,49216
2018-06-30T07:53:02.764Z,50080
2018-06-30T07:54:03.030Z,51872
2018-06-30T07:55:02.760Z,53248
2018-06-30T07:56:03.318Z,53248
2018-06-30T07:57:03.036Z,52352
2018-06-30T07:58:03.035Z,53120
2018-06-30T07:59:03.029Z,55232
2018-06-30T08:00:03.034Z,56736
2018-06-30T08:01:03.036Z,55264
2018-06-30T08:02:03.400Z,52928
2018-06-30T08:03:03.042Z,51840
2018-06-30T08:04:03.235Z,53568
2018-06-30T08:05:02.792Z,54688
2018-06-30T08:06:03.327Z,57184
2018-06-30T08:07:03.046Z,58720
2018-06-30T08:08:03.063Z,58880
2018-06-30T08:09:03.095Z,55584
2018-06-30T08:10:03.070Z,50496
2018-06-30T08:11:02.792Z,47296
2018-06-30T08:12:03.059Z,49056
2018-06-30T08:13:02.806Z,54304
2018-06-30T08:14:03.285Z,60064
2018-06-30T08:15:02.801Z,62464
2018-06-30T08:16:03.337Z,62784
2018-06-30T08:17:03.079Z,60928
2018-06-30T08:18:02.809Z,56992
2018-06-30T08:19:02.818Z,54048
2018-06-30T08:20:02.558Z,51808
2018-06-30T08:21:02.832Z,51712
2018-06-30T08:22:03.347Z,54752
2018-06-30T08:23:03.102Z,59296
2018-06-30T08:24:03.362Z,62336
2018-06-30T08:25:03.373Z,64288
2018-06-30T08:26:03.101Z,63840
2018-06-30T08:27:03.106Z,62016
2018-06-30T08:28:02.866Z,58528
2018-06-30T08:29:03.119Z,54528
2018-06-30T08:30:03.128Z,54752
2018-06-30T08:31:03.430Z,60672
2018-06-30T08:32:02.886Z,57696
2018-06-30T08:33:03.402Z,59712
2018-06-30T08:34:02.875Z,35648
2018-06-30T08:35:02.875Z,20320
2018-06-30T08:36:02.889Z,57472
2018-06-30T08:37:03.161Z,14272
2018-06-30T08:38:03.148Z,31616
2018-06-30T08:39:02.623Z,31904
2018-06-30T08:40:03.155Z,0
2018-06-30T08:41:02.892Z,32896
2018-06-30T08:42:03.425Z,6252
2018-06-30T08:43:02.945Z,31648
2018-06-30T08:44:02.900Z,63680
2018-06-30T08:45:02.907Z,2640
2018-06-30T08:46:02.903Z,2840
2018-06-30T08:47:03.444Z,4900
2018-06-30T08:48:02.914Z,48896
2018-06-30T08:49:02.908Z,4596
2018-06-30T08:50:03.173Z,5300
2018-06-30T08:51:03.242Z,30944
2018-06-30T08:52:03.437Z,17888
2018-06-30T08:53:03.183Z,33920
2018-06-30T08:54:03.452Z,47552
2018-06-30T08:55:02.912Z,30752
2018-06-30T08:56:03.178Z,31136
2018-06-30T08:57:03.046Z,38976
2018-06-30T08:58:02.907Z,5220
2018-06-30T08:59:03.456Z,2680
2018-06-30T09:00:02.912Z,49952
2018-06-30T09:01:03.172Z,86912
2018-06-30T09:02:02.905Z,58240
2018-06-30T09:03:02.913Z,75232
2018-06-30T09:04:02.917Z,68192
2018-06-30T09:05:03.438Z,64672
2018-06-30T09:06:03.191Z,64256
2018-06-30T09:07:03.187Z,66880
2018-06-30T09:08:02.909Z,73184
2018-06-30T09:09:02.653Z,83104
2018-06-30T09:10:02.921Z,91840
2018-06-30T09:11:03.193Z,93792
2018-06-30T09:12:03.352Z,87168
2018-06-30T09:13:03.181Z,78112
2018-06-30T09:14:03.194Z,69024
2018-06-30T09:15:03.197Z,60416
2018-06-30T09:16:03.486Z,44704
2018-06-30T09:17:03.198Z,60384
2018-06-30T09:18:02.993Z,39040
2018-06-30T09:19:02.940Z,75936
2018-06-30T09:20:02.680Z,22304
2018-06-30T09:21:02.689Z,58880
2018-06-30T09:22:03.220Z,87392
2018-06-30T09:23:02.964Z,36384
2018-06-30T09:24:03.238Z,82432
2018-06-30T09:25:02.968Z,10756
2018-06-30T09:26:02.970Z,44352
2018-06-30T09:27:02.965Z,26816
2018-06-30T09:28:03.283Z,77568
2018-06-30T09:29:03.505Z,41664
2018-06-30T09:30:03.519Z,41184
2018-06-30T09:31:03.006Z,60672
2018-06-30T09:32:02.995Z,90016
2018-06-30T09:33:02.985Z,90656
2018-06-30T09:34:03.257Z,12140
2018-06-30T09:35:03.459Z,21420
2018-06-30T09:36:03.259Z,66912
2018-06-30T09:37:03.259Z,49984
2018-06-30T09:38:03.766Z,72192
2018-06-30T09:39:03.270Z,72192
2018-06-30T09:40:03.005Z,74304
2018-06-30T09:41:03.002Z,68160
2018-06-30T09:42:03.062Z,71200
2018-06-30T09:43:03.019Z,71136
2018-06-30T09:44:02.748Z,70816
2018-06-30T09:45:03.026Z,69600
2018-06-30T09:46:03.060Z,46048
2018-06-30T09:47:03.030Z,16576
2018-06-30T09:48:03.565Z,20544
2018-06-30T09:49:03.034Z,26624
2018-06-30T09:50:03.040Z,73344
2018-06-30T09:51:03.486Z,56576
2018-06-30T09:52:03.591Z,21696
2018-06-30T09:53:03.072Z,24448
2018-06-30T09:54:03.386Z,14776
2018-06-30T09:55:03.818Z,13252
2018-06-30T09:56:03.314Z,13952
2018-06-30T09:57:03.075Z,0
2018-06-30T09:58:03.522Z,6788
2018-06-30T09:59:03.336Z,4520
2018-06-30T10:00:03.311Z,5560
2018-06-30T10:01:03.313Z,4036
2018-06-30T10:02:02.794Z,5372
2018-06-30T10:03:03.322Z,3260
2018-06-30T10:04:03.060Z,3044
2018-06-30T10:05:03.317Z,14008
2018-06-30T10:06:03.315Z,7220
2018-06-30T10:07:03.659Z,20168
2018-06-30T10:08:03.312Z,14948
2018-06-30T10:09:03.624Z,61472
2018-06-30T10:10:03.042Z,20704
2018-06-30T10:11:03.310Z,5028
2018-06-30T10:12:03.303Z,11672
2018-06-30T10:13:03.568Z,43328
2018-06-30T10:14:03.306Z,6448
2018-06-30T10:15:03.299Z,484
2018-06-30T10:16:03.036Z,95232
2018-06-30T10:17:03.035Z,53056
2018-06-30T10:18:03.301Z,47008
2018-06-30T10:19:03.327Z,45984
2018-06-30T10:20:03.029Z,79552
2018-06-30T10:21:03.774Z,5472
2018-06-30T10:22:03.032Z,18688
2018-06-30T10:23:03.288Z,61440
2018-06-30T10:24:03.290Z,71872
2018-06-30T10:25:02.760Z,20480
2018-06-30T10:26:03.063Z,77504
2018-06-30T10:27:03.547Z,35936
2018-06-30T10:28:03.298Z,99488
2018-06-30T10:29:03.581Z,75616
2018-06-30T10:30:03.039Z,93632
2018-06-30T10:31:03.294Z,92416
2018-06-30T10:32:03.020Z,94656
2018-06-30T10:33:03.287Z,27488
2018-06-30T10:34:02.756Z,93024
2018-06-30T10:35:03.306Z,94752
2018-06-30T10:36:03.298Z,98912
2018-06-30T10:37:03.037Z,101344
2018-06-30T10:38:03.306Z,100128
2018-06-30T10:39:03.294Z,97056
2018-06-30T10:40:03.046Z,93120
2018-06-30T10:41:03.316Z,89280
2018-06-30T10:42:03.313Z,87168
2018-06-30T10:43:02.790Z,85408
2018-06-30T10:44:03.064Z,86496
2018-06-30T10:45:03.333Z,90976
2018-06-30T10:46:03.338Z,96448
2018-06-30T10:47:03.346Z,99712
2018-06-30T10:48:03.073Z,100832
2018-06-30T10:49:03.351Z,100832
2018-06-30T10:50:03.358Z,98688
2018-06-30T10:51:03.108Z,94944
2018-06-30T10:52:03.372Z,93760
2018-06-30T10:53:03.642Z,94560
2018-06-30T10:54:03.650Z,97792
2018-06-30T10:55:03.077Z,99840
2018-06-30T10:56:03.139Z,103488
2018-06-30T10:57:03.672Z,106304
2018-06-30T10:58:03.419Z,108000
2018-06-30T10:59:03.416Z,109152
2018-06-30T11:00:03.704Z,106784
2018-06-30T11:01:03.174Z,103008
2018-06-30T11:02:03.724Z,96288
2018-06-30T11:03:02.922Z,91040
2018-06-30T11:04:03.663Z,90624
2018-06-30T11:05:03.465Z,95040
2018-06-30T11:06:04.091Z,104032
2018-06-30T11:07:03.222Z,113056
2018-06-30T11:08:02.959Z,119808
2018-06-30T11:09:02.968Z,123808
2018-06-30T11:10:03.243Z,122592
2018-06-30T11:11:03.446Z,117344
2018-06-30T11:12:03.792Z,109184
2018-06-30T11:13:03.535Z,100480
2018-06-30T11:14:03.537Z,92032
2018-06-30T11:15:03.012Z,84896
2018-06-30T11:16:03.551Z,82784
2018-06-30T11:17:03.294Z,84384
2018-06-30T11:18:03.575Z,86592
2018-06-30T11:19:03.043Z,91072
2018-06-30T11:20:03.673Z,96640
2018-06-30T11:21:03.851Z,102144
2018-06-30T11:22:03.335Z,107296
2018-06-30T11:23:03.865Z,112256
2018-06-30T11:24:03.350Z,112512
2018-06-30T11:25:03.367Z,110656
2018-06-30T11:26:03.105Z,109088
2018-06-30T11:27:03.379Z,101952
2018-06-30T11:28:03.396Z,96128
2018-06-30T11:29:03.391Z,92576
2018-06-30T11:30:03.141Z,89536
2018-06-30T11:31:03.162Z,86112
2018-06-30T11:32:03.419Z,84352
2018-06-30T11:33:03.740Z,85952
2018-06-30T11:34:03.731Z,92928
2018-06-30T11:35:03.929Z,103520
2018-06-30T11:36:03.457Z,115552
2018-06-30T11:37:03.461Z,124000
2018-06-30T11:38:03.742Z,128800
2018-06-30T11:39:03.742Z,127616
2018-06-30T11:40:03.483Z,120896
2018-06-30T11:41:03.693Z,110528
2018-06-30T11:42:03.772Z,96608
2018-06-30T11:43:03.789Z,84896
2018-06-30T11:44:03.794Z,74048
2018-06-30T11:45:03.538Z,62848
2018-06-30T11:46:03.545Z,53056
2018-06-30T11:47:03.817Z,50560
2018-06-30T11:48:03.832Z,55392
2018-06-30T11:49:03.833Z,65568
2018-06-30T11:50:03.576Z,81920
2018-06-30T11:51:03.708Z,99072
2018-06-30T11:52:03.599Z,113824
2018-06-30T11:53:03.876Z,120960
2018-06-30T11:54:04.142Z,118176
2018-06-30T11:55:03.886Z,110080
2018-06-30T11:56:03.901Z,94848
2018-06-30T11:57:03.904Z,80352
2018-06-30T11:58:03.910Z,67936
2018-06-30T11:59:03.658Z,58976
2018-06-30T12:00:03.937Z,50080
2018-06-30T12:01:03.681Z,48480
2018-06-30T12:02:04.100Z,52192
2018-06-30T12:03:04.042Z,59264
2018-06-30T12:04:04.288Z,68480
2018-06-30T12:05:03.725Z,78848
2018-06-30T12:06:03.720Z,88512
2018-06-30T12:07:04.000Z,94400
2018-06-30T12:08:03.737Z,96928
2018-06-30T12:09:03.742Z,92480
2018-06-30T12:10:03.757Z,92000
2018-06-30T12:11:04.028Z,87296
2018-06-30T12:12:04.323Z,88288
2018-06-30T12:13:03.511Z,89504
2018-06-30T12:14:03.785Z,90560
2018-06-30T12:15:03.798Z,90944
2018-06-30T12:16:04.070Z,92832
2018-06-30T12:17:03.819Z,92608
2018-06-30T12:18:03.824Z,88960
2018-06-30T12:19:04.099Z,88128
2018-06-30T12:20:04.112Z,88032
2018-06-30T12:21:04.140Z,86304
2018-06-30T12:22:03.878Z,85952
2018-06-30T12:23:04.423Z,87392
2018-06-30T12:24:03.873Z,90816
2018-06-30T12:25:04.430Z,94464
2018-06-30T12:26:04.159Z,97408
2018-06-30T12:27:04.180Z,101056
2018-06-30T12:28:03.651Z,103776
2018-06-30T12:29:04.450Z,105504
2018-06-30T12:30:04.464Z,104288
2018-06-30T12:31:04.477Z,101568
2018-06-30T12:32:04.708Z,97792
2018-06-30T12:33:04.225Z,92928
2018-06-30T12:34:03.966Z,87072
2018-06-30T12:35:04.251Z,79680
2018-06-30T12:36:03.993Z,76608
2018-06-30T12:37:04.001Z,75552
2018-06-30T12:38:04.537Z,80096
2018-06-30T12:39:04.672Z,85184
2018-06-30T12:40:04.030Z,88480
2018-06-30T12:41:04.034Z,94272
2018-06-30T12:42:04.045Z,99296
2018-06-30T12:43:03.794Z,101600
2018-06-30T12:44:04.061Z,100928
2018-06-30T12:45:05.019Z,99328
2018-06-30T12:46:04.353Z,99936
2018-06-30T12:47:04.363Z,100480
2018-06-30T12:48:03.833Z,97696
2018-06-30T12:49:04.109Z,94304
2018-06-30T12:50:04.110Z,89632
2018-06-30T12:51:04.129Z,84800
2018-06-30T12:52:04.404Z,85536
2018-06-30T12:53:04.412Z,84544
2018-06-30T12:54:04.178Z,86848
2018-06-30T12:55:04.214Z,89952
2018-06-30T12:56:04.177Z,91936
2018-06-30T12:57:04.455Z,90368
2018-06-30T12:58:03.923Z,91008
2018-06-30T12:59:04.208Z,93568
2018-06-30T13:00:04.484Z,100416
2018-06-30T13:01:04.476Z,107104
2018-06-30T13:02:04.225Z,109856
2018-06-30T13:03:04.508Z,111680
2018-06-30T13:04:04.253Z,109696
2018-06-30T13:05:04.534Z,102560
2018-06-30T13:06:04.278Z,93056
2018-06-30T13:07:04.015Z,85856
2018-06-30T13:08:04.558Z,84288
2018-06-30T13:09:04.680Z,90080
2018-06-30T13:10:04.306Z,96704
2018-06-30T13:11:04.054Z,106016
2018-06-30T13:12:04.855Z,108704
2018-06-30T13:13:04.586Z,110720
2018-06-30T13:14:04.337Z,110528
2018-06-30T13:15:04.348Z,105536
2018-06-30T13:16:04.631Z,100384
2018-06-30T13:17:04.376Z,102880
2018-06-30T13:18:04.109Z,106560
2018-06-30T13:19:04.915Z,108096
2018-06-30T13:20:04.394Z,112672
2018-06-30T13:21:04.407Z,115360
2018-06-30T13:22:04.416Z,115712
2018-06-30T13:23:04.193Z,112928
2018-06-30T13:24:04.702Z,106944
2018-06-30T13:25:04.706Z,101472